sensor_id;sensor_type;location;lat;lon;timestamp;P1;durP1;ratioP1;P2;durP2;ratioP2
14994;SDS011;7593;49.006;8.372;2024-02-26T00:01:46;2.25;;;1.98;;
14994;SDS011;7593;49.006;8.372;2024-02-26T00:04:13;1.70;;;1.60;;
14994;SDS011;7593;49.006;8.372;2024-02-26T00:06:40;2.10;;;1.83;;
14994;SDS011;7593;49.006;8.372;2024-02-26T00:09:07;2.55;;;1.92;;
14994;SDS011;7593;49.006;8.372;2024-02-26T00:11:35;2.15;;;1.88;;
14994;SDS011;7593;49.006;8.372;2024-02-26T00:14:02;2.08;;;1.75;;
14994;SDS011;7593;49.006;8.372;2024-02-26T00:16:30;1.70;;;1.60;;
14994;SDS011;7593;49.006;8.372;2024-02-26T00:18:57;2.65;;;1.60;;
14994;SDS011;7593;49.006;8.372;2024-02-26T00:21:24;1.33;;;1.23;;
14994;SDS011;7593;49.006;8.372;2024-02-26T00:23:51;1.83;;;1.50;;
14994;SDS011;7593;49.006;8.372;2024-02-26T00:26:18;2.00;;;1.80;;
14994;SDS011;7593;49.006;8.372;2024-02-26T00:28:45;1.63;;;1.50;;
14994;SDS011;7593;49.006;8.372;2024-02-26T00:31:12;1.90;;;1.40;;
14994;SDS011;7593;49.006;8.372;2024-02-26T00:33:40;1.75;;;1.58;;
14994;SDS011;7593;49.006;8.372;2024-02-26T00:36:06;1.70;;;1.60;;
14994;SDS011;7593;49.006;8.372;2024-02-26T00:38:33;2.83;;;1.65;;
14994;SDS011;7593;49.006;8.372;2024-02-26T00:41:01;1.52;;;1.40;;
14994;SDS011;7593;49.006;8.372;2024-02-26T00:43:27;2.00;;;1.50;;
14994;SDS011;7593;49.006;8.372;2024-02-26T00:45:54;1.60;;;1.40;;
14994;SDS011;7593;49.006;8.372;2024-02-26T00:48:21;2.58;;;1.50;;
14994;SDS011;7593;49.006;8.372;2024-02-26T00:50:51;1.70;;;1.60;;
14994;SDS011;7593;49.006;8.372;2024-02-26T00:53:18;1.88;;;1.73;;
14994;SDS011;7593;49.006;8.372;2024-02-26T00:55:45;1.83;;;1.63;;
14994;SDS011;7593;49.006;8.372;2024-02-26T00:58:12;1.92;;;1.58;;
14994;SDS011;7593;49.006;8.372;2024-02-26T01:00:38;2.67;;;1.63;;
14994;SDS011;7593;49.006;8.372;2024-02-26T01:03:05;1.95;;;1.65;;
14994;SDS011;7593;49.006;8.372;2024-02-26T01:05:32;1.83;;;1.50;;
14994;SDS011;7593;49.006;8.372;2024-02-26T01:08:00;2.15;;;1.30;;
14994;SDS011;7593;49.006;8.372;2024-02-26T01:10:27;1.60;;;1.40;;
14994;SDS011;7593;49.006;8.372;2024-02-26T01:12:54;1.17;;;1.08;;
14994;SDS011;7593;49.006;8.372;2024-02-26T01:15:21;2.15;;;1.50;;
14994;SDS011;7593;49.006;8.372;2024-02-26T01:17:48;2.35;;;1.38;;
14994;SDS011;7593;49.006;8.372;2024-02-26T01:20:15;2.25;;;1.50;;
14994;SDS011;7593;49.006;8.372;2024-02-26T01:22:42;2.28;;;1.45;;
14994;SDS011;7593;49.006;8.372;2024-02-26T01:25:11;1.70;;;1.60;;
14994;SDS011;7593;49.006;8.372;2024-02-26T01:27:39;3.90;;;1.60;;
14994;SDS011;7593;49.006;8.372;2024-02-26T01:30:08;2.42;;;1.88;;
14994;SDS011;7593;49.006;8.372;2024-02-26T01:32:35;2.28;;;1.50;;
14994;SDS011;7593;49.006;8.372;2024-02-26T01:35:02;1.70;;;1.35;;
14994;SDS011;7593;49.006;8.372;2024-02-26T01:37:32;2.65;;;1.92;;
14994;SDS011;7593;49.006;8.372;2024-02-26T01:39:59;2.88;;;1.50;;
14994;SDS011;7593;49.006;8.372;2024-02-26T01:42:30;2.40;;;1.67;;
14994;SDS011;7593;49.006;8.372;2024-02-26T01:44:57;2.75;;;1.50;;
14994;SDS011;7593;49.006;8.372;2024-02-26T01:47:24;3.40;;;1.48;;
14994;SDS011;7593;49.006;8.372;2024-02-26T01:49:52;2.78;;;2.17;;
14994;SDS011;7593;49.006;8.372;2024-02-26T01:52:19;2.63;;;1.90;;
14994;SDS011;7593;49.006;8.372;2024-02-26T01:54:47;2.92;;;1.50;;
14994;SDS011;7593;49.006;8.372;2024-02-26T01:57:15;1.52;;;1.15;;
14994;SDS011;7593;49.006;8.372;2024-02-26T01:59:43;1.17;;;1.08;;
14994;SDS011;7593;49.006;8.372;2024-02-26T02:02:10;1.88;;;1.23;;
14994;SDS011;7593;49.006;8.372;2024-02-26T02:04:38;1.20;;;1.10;;
14994;SDS011;7593;49.006;8.372;2024-02-26T02:07:05;2.03;;;1.20;;
14994;SDS011;7593;49.006;8.372;2024-02-26T02:09:32;1.30;;;1.05;;
14994;SDS011;7593;49.006;8.372;2024-02-26T02:11:59;1.58;;;1.10;;
14994;SDS011;7593;49.006;8.372;2024-02-26T02:14:28;1.90;;;1.20;;
14994;SDS011;7593;49.006;8.372;2024-02-26T02:16:57;1.20;;;1.10;;
14994;SDS011;7593;49.006;8.372;2024-02-26T02:19:23;1.77;;;1.20;;
14994;SDS011;7593;49.006;8.372;2024-02-26T02:21:51;1.27;;;1.10;;
14994;SDS011;7593;49.006;8.372;2024-02-26T02:24:18;1.25;;;0.90;;
14994;SDS011;7593;49.006;8.372;2024-02-26T02:26:45;1.42;;;1.15;;
14994;SDS011;7593;49.006;8.372;2024-02-26T02:29:12;2.30;;;1.15;;
14994;SDS011;7593;49.006;8.372;2024-02-26T02:31:40;1.20;;;1.00;;
14994;SDS011;7593;49.006;8.372;2024-02-26T02:34:07;2.58;;;1.00;;
14994;SDS011;7593;49.006;8.372;2024-02-26T02:36:35;1.23;;;1.00;;
14994;SDS011;7593;49.006;8.372;2024-02-26T02:39:16;1.33;;;1.10;;
14994;SDS011;7593;49.006;8.372;2024-02-26T02:41:43;2.17;;;1.20;;
14994;SDS011;7593;49.006;8.372;2024-02-26T02:44:10;1.60;;;1.45;;
14994;SDS011;7593;49.006;8.372;2024-02-26T02:46:36;4.30;;;1.60;;
14994;SDS011;7593;49.006;8.372;2024-02-26T02:49:03;2.53;;;1.52;;
14994;SDS011;7593;49.006;8.372;2024-02-26T02:51:30;2.00;;;1.80;;
14994;SDS011;7593;49.006;8.372;2024-02-26T02:53:56;3.67;;;1.70;;
14994;SDS011;7593;49.006;8.372;2024-02-26T02:56:24;1.90;;;1.60;;
14994;SDS011;7593;49.006;8.372;2024-02-26T02:58:51;2.00;;;1.80;;
14994;SDS011;7593;49.006;8.372;2024-02-26T03:01:18;1.50;;;1.30;;
14994;SDS011;7593;49.006;8.372;2024-02-26T03:03:44;2.40;;;1.70;;
14994;SDS011;7593;49.006;8.372;2024-02-26T03:06:11;1.80;;;1.50;;
14994;SDS011;7593;49.006;8.372;2024-02-26T03:08:40;2.05;;;1.38;;
14994;SDS011;7593;49.006;8.372;2024-02-26T03:11:07;1.20;;;1.10;;
14994;SDS011;7593;49.006;8.372;2024-02-26T03:13:35;1.42;;;1.33;;
14994;SDS011;7593;49.006;8.372;2024-02-26T03:16:04;1.38;;;1.25;;
14994;SDS011;7593;49.006;8.372;2024-02-26T03:18:31;1.40;;;1.30;;
14994;SDS011;7593;49.006;8.372;2024-02-26T03:20:57;1.38;;;1.20;;
14994;SDS011;7593;49.006;8.372;2024-02-26T03:23:24;3.17;;;1.30;;
14994;SDS011;7593;49.006;8.372;2024-02-26T03:25:53;1.10;;;1.00;;
14994;SDS011;7593;49.006;8.372;2024-02-26T03:28:29;1.30;;;1.20;;
14994;SDS011;7593;49.006;8.372;2024-02-26T03:30:59;1.25;;;1.15;;
14994;SDS011;7593;49.006;8.372;2024-02-26T03:33:27;1.35;;;1.05;;
14994;SDS011;7593;49.006;8.372;2024-02-26T03:35:54;3.30;;;1.20;;
14994;SDS011;7593;49.006;8.372;2024-02-26T03:38:20;1.38;;;1.13;;
14994;SDS011;7593;49.006;8.372;2024-02-26T03:40:47;1.20;;;1.00;;
14994;SDS011;7593;49.006;8.372;2024-02-26T03:43:14;1.40;;;1.05;;
14994;SDS011;7593;49.006;8.372;2024-02-26T03:45:41;1.20;;;1.10;;
14994;SDS011;7593;49.006;8.372;2024-02-26T03:48:09;1.20;;;1.10;;
14994;SDS011;7593;49.006;8.372;2024-02-26T03:50:36;0.82;;;0.82;;
14994;SDS011;7593;49.006;8.372;2024-02-26T03:53:02;1.25;;;1.00;;
14994;SDS011;7593;49.006;8.372;2024-02-26T03:55:29;0.70;;;0.70;;
14994;SDS011;7593;49.006;8.372;2024-02-26T03:57:56;1.80;;;1.00;;
14994;SDS011;7593;49.006;8.372;2024-02-26T04:00:23;1.10;;;1.00;;
14994;SDS011;7593;49.006;8.372;2024-02-26T04:02:51;1.10;;;1.00;;
14994;SDS011;7593;49.006;8.372;2024-02-26T04:05:19;1.30;;;1.10;;
14994;SDS011;7593;49.006;8.372;2024-02-26T04:07:46;1.70;;;0.95;;
14994;SDS011;7593;49.006;8.372;2024-02-26T04:10:13;1.10;;;0.95;;
14994;SDS011;7593;49.006;8.372;2024-02-26T04:12:40;1.30;;;1.05;;
14994;SDS011;7593;49.006;8.372;2024-02-26T04:15:07;1.40;;;1.23;;
14994;SDS011;7593;49.006;8.372;2024-02-26T04:17:35;2.10;;;1.02;;
14994;SDS011;7593;49.006;8.372;2024-02-26T04:20:03;0.88;;;0.88;;
14994;SDS011;7593;49.006;8.372;2024-02-26T04:22:32;1.08;;;0.98;;
14994;SDS011;7593;49.006;8.372;2024-02-26T04:24:59;2.00;;;1.00;;
14994;SDS011;7593;49.006;8.372;2024-02-26T04:27:26;2.50;;;0.98;;
14994;SDS011;7593;49.006;8.372;2024-02-26T04:29:53;3.05;;;2.75;;
14994;SDS011;7593;49.006;8.372;2024-02-26T04:32:19;1.05;;;0.90;;
14994;SDS011;7593;49.006;8.372;2024-02-26T04:34:46;1.30;;;1.20;;
14994;SDS011;7593;49.006;8.372;2024-02-26T04:37:13;1.17;;;1.00;;
14994;SDS011;7593;49.006;8.372;2024-02-26T04:39:41;1.52;;;1.10;;
14994;SDS011;7593;49.006;8.372;2024-02-26T04:42:08;1.15;;;1.02;;
14994;SDS011;7593;49.006;8.372;2024-02-26T04:44:34;0.88;;;0.88;;
14994;SDS011;7593;49.006;8.372;2024-02-26T04:47:01;1.30;;;1.05;;
14994;SDS011;7593;49.006;8.372;2024-02-26T04:49:28;1.77;;;1.15;;
14994;SDS011;7593;49.006;8.372;2024-02-26T04:51:55;1.10;;;0.90;;
14994;SDS011;7593;49.006;8.372;2024-02-26T04:54:21;1.23;;;1.05;;
14994;SDS011;7593;49.006;8.372;2024-02-26T04:56:49;2.65;;;1.15;;
14994;SDS011;7593;49.006;8.372;2024-02-26T04:59:16;1.33;;;1.00;;
14994;SDS011;7593;49.006;8.372;2024-02-26T05:01:43;2.28;;;1.17;;
14994;SDS011;7593;49.006;8.372;2024-02-26T05:04:10;2.42;;;1.10;;
14994;SDS011;7593;49.006;8.372;2024-02-26T05:06:37;1.33;;;0.98;;
14994;SDS011;7593;49.006;8.372;2024-02-26T05:09:04;1.10;;;0.98;;
14994;SDS011;7593;49.006;8.372;2024-02-26T05:11:30;1.38;;;1.00;;
14994;SDS011;7593;49.006;8.372;2024-02-26T05:13:58;2.70;;;1.20;;
14994;SDS011;7593;49.006;8.372;2024-02-26T05:16:25;1.50;;;1.10;;
14994;SDS011;7593;49.006;8.372;2024-02-26T05:18:52;2.00;;;0.95;;
14994;SDS011;7593;49.006;8.372;2024-02-26T05:21:20;0.95;;;0.88;;
14994;SDS011;7593;49.006;8.372;2024-02-26T05:23:47;1.20;;;0.98;;
14994;SDS011;7593;49.006;8.372;2024-02-26T05:26:18;1.25;;;1.10;;
14994;SDS011;7593;49.006;8.372;2024-02-26T05:28:46;1.63;;;1.10;;
14994;SDS011;7593;49.006;8.372;2024-02-26T05:31:14;1.58;;;1.08;;
14994;SDS011;7593;49.006;8.372;2024-02-26T05:33:41;1.50;;;1.30;;
14994;SDS011;7593;49.006;8.372;2024-02-26T05:36:08;1.10;;;0.93;;
14994;SDS011;7593;49.006;8.372;2024-02-26T05:38:35;1.00;;;0.90;;
14994;SDS011;7593;49.006;8.372;2024-02-26T05:41:02;1.88;;;1.10;;
14994;SDS011;7593;49.006;8.372;2024-02-26T05:43:29;1.05;;;0.85;;
14994;SDS011;7593;49.006;8.372;2024-02-26T05:45:56;1.20;;;1.00;;
14994;SDS011;7593;49.006;8.372;2024-02-26T05:48:24;3.40;;;0.90;;
14994;SDS011;7593;49.006;8.372;2024-02-26T05:50:51;1.02;;;0.90;;
14994;SDS011;7593;49.006;8.372;2024-02-26T05:53:18;0.88;;;0.88;;
14994;SDS011;7593;49.006;8.372;2024-02-26T05:55:45;1.10;;;1.00;;
14994;SDS011;7593;49.006;8.372;2024-02-26T05:58:12;1.05;;;0.90;;
14994;SDS011;7593;49.006;8.372;2024-02-26T06:00:39;1.10;;;0.90;;
14994;SDS011;7593;49.006;8.372;2024-02-26T06:03:06;1.17;;;1.08;;
14994;SDS011;7593;49.006;8.372;2024-02-26T06:05:34;1.10;;;1.00;;
14994;SDS011;7593;49.006;8.372;2024-02-26T06:08:01;1.20;;;1.10;;
14994;SDS011;7593;49.006;8.372;2024-02-26T06:10:27;1.95;;;0.90;;
14994;SDS011;7593;49.006;8.372;2024-02-26T06:12:54;0.85;;;0.85;;
14994;SDS011;7593;49.006;8.372;2024-02-26T06:15:21;1.63;;;1.00;;
14994;SDS011;7593;49.006;8.372;2024-02-26T06:17:48;1.85;;;1.40;;
14994;SDS011;7593;49.006;8.372;2024-02-26T06:20:15;3.40;;;2.15;;
14994;SDS011;7593;49.006;8.372;2024-02-26T06:22:43;2.10;;;1.90;;
14994;SDS011;7593;49.006;8.372;2024-02-26T06:25:10;1.45;;;1.35;;
14994;SDS011;7593;49.006;8.372;2024-02-26T06:27:37;5.25;;;3.10;;
14994;SDS011;7593;49.006;8.372;2024-02-26T06:30:04;2.78;;;2.58;;
14994;SDS011;7593;49.006;8.372;2024-02-26T06:32:31;2.95;;;2.38;;
14994;SDS011;7593;49.006;8.372;2024-02-26T06:34:58;1.90;;;1.77;;
14994;SDS011;7593;49.006;8.372;2024-02-26T06:37:25;2.45;;;1.90;;
14994;SDS011;7593;49.006;8.372;2024-02-26T06:39:53;1.92;;;1.50;;
14994;SDS011;7593;49.006;8.372;2024-02-26T06:42:20;1.58;;;1.27;;
14994;SDS011;7593;49.006;8.372;2024-02-26T06:44:46;2.10;;;1.50;;
14994;SDS011;7593;49.006;8.372;2024-02-26T06:47:13;2.15;;;1.30;;
14994;SDS011;7593;49.006;8.372;2024-02-26T06:49:40;1.67;;;1.42;;
14994;SDS011;7593;49.006;8.372;2024-02-26T06:52:06;1.40;;;1.17;;
14994;SDS011;7593;49.006;8.372;2024-02-26T06:54:33;3.22;;;1.67;;
14994;SDS011;7593;49.006;8.372;2024-02-26T06:57:01;2.65;;;1.33;;
14994;SDS011;7593;49.006;8.372;2024-02-26T06:59:28;1.50;;;1.27;;
14994;SDS011;7593;49.006;8.372;2024-02-26T07:01:55;3.22;;;1.42;;
14994;SDS011;7593;49.006;8.372;2024-02-26T07:04:22;2.80;;;1.90;;
14994;SDS011;7593;49.006;8.372;2024-02-26T07:06:48;2.42;;;1.65;;
14994;SDS011;7593;49.006;8.372;2024-02-26T07:09:15;2.08;;;1.52;;
14994;SDS011;7593;49.006;8.372;2024-02-26T07:11:42;3.78;;;1.80;;
14994;SDS011;7593;49.006;8.372;2024-02-26T07:14:10;2.90;;;2.10;;
14994;SDS011;7593;49.006;8.372;2024-02-26T07:16:38;1.67;;;1.40;;
14994;SDS011;7593;49.006;8.372;2024-02-26T07:19:05;2.95;;;1.83;;
14994;SDS011;7593;49.006;8.372;2024-02-26T07:21:32;3.30;;;1.58;;
14994;SDS011;7593;49.006;8.372;2024-02-26T07:23:59;2.33;;;1.50;;
14994;SDS011;7593;49.006;8.372;2024-02-26T07:26:25;2.50;;;1.67;;
14994;SDS011;7593;49.006;8.372;2024-02-26T07:28:54;1.92;;;1.73;;
14994;SDS011;7593;49.006;8.372;2024-02-26T07:31:23;3.15;;;1.52;;
14994;SDS011;7593;49.006;8.372;2024-02-26T07:33:49;2.92;;;1.77;;
14994;SDS011;7593;49.006;8.372;2024-02-26T07:36:16;3.15;;;1.88;;
14994;SDS011;7593;49.006;8.372;2024-02-26T07:38:43;2.10;;;1.40;;
14994;SDS011;7593;49.006;8.372;2024-02-26T07:41:09;4.90;;;1.60;;
14994;SDS011;7593;49.006;8.372;2024-02-26T07:43:37;2.58;;;1.75;;
14994;SDS011;7593;49.006;8.372;2024-02-26T07:46:04;3.95;;;1.73;;
14994;SDS011;7593;49.006;8.372;2024-02-26T07:48:32;3.05;;;2.00;;
14994;SDS011;7593;49.006;8.372;2024-02-26T07:50:59;4.25;;;2.10;;
14994;SDS011;7593;49.006;8.372;2024-02-26T07:53:28;5.82;;;1.80;;
14994;SDS011;7593;49.006;8.372;2024-02-26T07:55:55;5.85;;;1.95;;
14994;SDS011;7593;49.006;8.372;2024-02-26T07:58:22;5.43;;;2.20;;
14994;SDS011;7593;49.006;8.372;2024-02-26T08:00:49;7.78;;;2.08;;
14994;SDS011;7593;49.006;8.372;2024-02-26T08:03:16;2.30;;;1.58;;
14994;SDS011;7593;49.006;8.372;2024-02-26T08:05:44;2.45;;;1.77;;
14994;SDS011;7593;49.006;8.372;2024-02-26T08:08:11;3.80;;;1.80;;
14994;SDS011;7593;49.006;8.372;2024-02-26T08:10:38;2.28;;;1.80;;
14994;SDS011;7593;49.006;8.372;2024-02-26T08:13:05;3.05;;;2.03;;
14994;SDS011;7593;49.006;8.372;2024-02-26T08:15:32;4.25;;;2.13;;
14994;SDS011;7593;49.006;8.372;2024-02-26T08:17:59;3.75;;;1.60;;
14994;SDS011;7593;49.006;8.372;2024-02-26T08:20:28;2.53;;;1.60;;
14994;SDS011;7593;49.006;8.372;2024-02-26T08:22:56;4.75;;;2.25;;
14994;SDS011;7593;49.006;8.372;2024-02-26T08:25:23;3.08;;;2.15;;
14994;SDS011;7593;49.006;8.372;2024-02-26T08:27:50;2.10;;;1.70;;
14994;SDS011;7593;49.006;8.372;2024-02-26T08:30:17;4.53;;;2.58;;
14994;SDS011;7593;49.006;8.372;2024-02-26T08:32:44;2.65;;;1.88;;
14994;SDS011;7593;49.006;8.372;2024-02-26T08:35:11;2.92;;;2.13;;
14994;SDS011;7593;49.006;8.372;2024-02-26T08:37:38;4.00;;;1.88;;
14994;SDS011;7593;49.006;8.372;2024-02-26T08:40:07;2.78;;;1.80;;
14994;SDS011;7593;49.006;8.372;2024-02-26T08:42:34;2.50;;;1.65;;
14994;SDS011;7593;49.006;8.372;2024-02-26T08:45:01;3.20;;;1.67;;
14994;SDS011;7593;49.006;8.372;2024-02-26T08:47:29;2.85;;;2.30;;
14994;SDS011;7593;49.006;8.372;2024-02-26T08:49:55;4.07;;;1.38;;
14994;SDS011;7593;49.006;8.372;2024-02-26T08:52:22;2.42;;;1.73;;
14994;SDS011;7593;49.006;8.372;2024-02-26T08:54:49;2.92;;;1.40;;
14994;SDS011;7593;49.006;8.372;2024-02-26T08:57:17;2.05;;;1.73;;
14994;SDS011;7593;49.006;8.372;2024-02-26T08:59:44;4.40;;;2.13;;
14994;SDS011;7593;49.006;8.372;2024-02-26T09:02:11;4.20;;;1.45;;
14994;SDS011;7593;49.006;8.372;2024-02-26T09:04:38;4.57;;;1.45;;
14994;SDS011;7593;49.006;8.372;2024-02-26T09:07:05;1.35;;;1.20;;
14994;SDS011;7593;49.006;8.372;2024-02-26T09:09:32;2.00;;;1.48;;
14994;SDS011;7593;49.006;8.372;2024-02-26T09:11:59;3.00;;;1.70;;
14994;SDS011;7593;49.006;8.372;2024-02-26T09:14:27;3.45;;;1.70;;
14994;SDS011;7593;49.006;8.372;2024-02-26T09:16:53;2.80;;;1.60;;
14994;SDS011;7593;49.006;8.372;2024-02-26T09:19:20;2.22;;;1.35;;
14994;SDS011;7593;49.006;8.372;2024-02-26T09:21:47;4.32;;;1.70;;
14994;SDS011;7593;49.006;8.372;2024-02-26T09:24:14;2.20;;;1.60;;
14994;SDS011;7593;49.006;8.372;2024-02-26T09:26:40;3.78;;;1.63;;
14994;SDS011;7593;49.006;8.372;2024-02-26T09:29:07;2.03;;;1.45;;
14994;SDS011;7593;49.006;8.372;2024-02-26T09:31:35;2.17;;;1.45;;
14994;SDS011;7593;49.006;8.372;2024-02-26T09:34:02;4.43;;;1.60;;
14994;SDS011;7593;49.006;8.372;2024-02-26T09:36:29;5.50;;;1.50;;
14994;SDS011;7593;49.006;8.372;2024-02-26T09:38:56;5.72;;;1.73;;
14994;SDS011;7593;49.006;8.372;2024-02-26T09:41:23;3.03;;;2.08;;
14994;SDS011;7593;49.006;8.372;2024-02-26T09:43:53;4.40;;;1.88;;
14994;SDS011;7593;49.006;8.372;2024-02-26T09:46:22;3.58;;;1.75;;
14994;SDS011;7593;49.006;8.372;2024-02-26T09:48:51;3.97;;;1.80;;
14994;SDS011;7593;49.006;8.372;2024-02-26T09:51:18;3.92;;;1.67;;
14994;SDS011;7593;49.006;8.372;2024-02-26T09:53:46;2.95;;;1.65;;
14994;SDS011;7593;49.006;8.372;2024-02-26T09:56:15;3.72;;;1.90;;
14994;SDS011;7593;49.006;8.372;2024-02-26T09:58:42;3.45;;;1.90;;
14994;SDS011;7593;49.006;8.372;2024-02-26T10:01:11;2.80;;;1.80;;
14994;SDS011;7593;49.006;8.372;2024-02-26T10:03:40;1.80;;;1.50;;
14994;SDS011;7593;49.006;8.372;2024-02-26T10:06:11;3.78;;;2.42;;
14994;SDS011;7593;49.006;8.372;2024-02-26T10:08:38;2.85;;;1.50;;
14994;SDS011;7593;49.006;8.372;2024-02-26T10:11:06;2.25;;;1.60;;
14994;SDS011;7593;49.006;8.372;2024-02-26T10:13:33;4.35;;;1.70;;
14994;SDS011;7593;49.006;8.372;2024-02-26T10:16:01;4.00;;;1.70;;
14994;SDS011;7593;49.006;8.372;2024-02-26T10:18:38;2.28;;;1.63;;
14994;SDS011;7593;49.006;8.372;2024-02-26T10:21:12;2.45;;;1.60;;
14994;SDS011;7593;49.006;8.372;2024-02-26T10:23:41;3.85;;;2.10;;
14994;SDS011;7593;49.006;8.372;2024-02-26T10:26:08;1.75;;;1.40;;
14994;SDS011;7593;49.006;8.372;2024-02-26T10:28:37;2.45;;;1.60;;
14994;SDS011;7593;49.006;8.372;2024-02-26T10:31:05;3.00;;;1.38;;
14994;SDS011;7593;49.006;8.372;2024-02-26T10:33:32;3.67;;;1.50;;
14994;SDS011;7593;49.006;8.372;2024-02-26T10:36:00;2.50;;;1.70;;
14994;SDS011;7593;49.006;8.372;2024-02-26T10:38:29;1.60;;;1.30;;
14994;SDS011;7593;49.006;8.372;2024-02-26T10:40:56;2.28;;;1.48;;
14994;SDS011;7593;49.006;8.372;2024-02-26T10:43:22;2.38;;;1.58;;
14994;SDS011;7593;49.006;8.372;2024-02-26T10:45:51;2.67;;;1.58;;
14994;SDS011;7593;49.006;8.372;2024-02-26T10:48:18;3.47;;;1.38;;
14994;SDS011;7593;49.006;8.372;2024-02-26T10:50:45;3.17;;;1.50;;
14994;SDS011;7593;49.006;8.372;2024-02-26T10:53:13;2.05;;;1.35;;
14994;SDS011;7593;49.006;8.372;2024-02-26T10:55:46;2.63;;;1.33;;
14994;SDS011;7593;49.006;8.372;2024-02-26T10:58:14;1.92;;;1.35;;
14994;SDS011;7593;49.006;8.372;2024-02-26T11:00:43;1.88;;;1.48;;
14994;SDS011;7593;49.006;8.372;2024-02-26T11:03:12;4.22;;;1.70;;
14994;SDS011;7593;49.006;8.372;2024-02-26T11:05:41;2.85;;;1.30;;
14994;SDS011;7593;49.006;8.372;2024-02-26T11:08:08;3.35;;;1.70;;
14994;SDS011;7593;49.006;8.372;2024-02-26T11:10:36;5.88;;;1.85;;
14994;SDS011;7593;49.006;8.372;2024-02-26T11:13:06;1.70;;;1.52;;
14994;SDS011;7593;49.006;8.372;2024-02-26T11:15:35;2.15;;;1.20;;
14994;SDS011;7593;49.006;8.372;2024-02-26T11:18:03;3.60;;;1.50;;
14994;SDS011;7593;49.006;8.372;2024-02-26T11:20:30;5.22;;;1.60;;
14994;SDS011;7593;49.006;8.372;2024-02-26T11:22:59;2.15;;;1.75;;
14994;SDS011;7593;49.006;8.372;2024-02-26T11:25:26;7.60;;;1.50;;
14994;SDS011;7593;49.006;8.372;2024-02-26T11:27:54;1.42;;;1.30;;
14994;SDS011;7593;49.006;8.372;2024-02-26T11:30:26;1.63;;;1.33;;
14994;SDS011;7593;49.006;8.372;2024-02-26T11:32:56;2.38;;;1.10;;
14994;SDS011;7593;49.006;8.372;2024-02-26T11:35:23;3.97;;;1.50;;
14994;SDS011;7593;49.006;8.372;2024-02-26T11:37:51;3.70;;;1.60;;
14994;SDS011;7593;49.006;8.372;2024-02-26T11:40:20;3.85;;;1.20;;
14994;SDS011;7593;49.006;8.372;2024-02-26T11:42:49;2.85;;;1.58;;
14994;SDS011;7593;49.006;8.372;2024-02-26T11:48:22;1.40;;;1.20;;
14994;SDS011;7593;49.006;8.372;2024-02-26T11:50:50;4.25;;;1.30;;
14994;SDS011;7593;49.006;8.372;2024-02-26T11:53:19;4.97;;;1.30;;
14994;SDS011;7593;49.006;8.372;2024-02-26T11:58:48;1.33;;;1.00;;
14994;SDS011;7593;49.006;8.372;2024-02-26T12:01:36;1.35;;;0.90;;
14994;SDS011;7593;49.006;8.372;2024-02-26T12:04:04;1.08;;;0.77;;
14994;SDS011;7593;49.006;8.372;2024-02-26T12:06:31;2.38;;;1.40;;
14994;SDS011;7593;49.006;8.372;2024-02-26T12:09:05;4.50;;;1.10;;
14994;SDS011;7593;49.006;8.372;2024-02-26T12:11:33;1.23;;;0.90;;
14994;SDS011;7593;49.006;8.372;2024-02-26T12:14:05;4.35;;;1.20;;
14994;SDS011;7593;49.006;8.372;2024-02-26T12:16:38;3.42;;;1.40;;
14994;SDS011;7593;49.006;8.372;2024-02-26T12:19:08;3.67;;;1.15;;
14994;SDS011;7593;49.006;8.372;2024-02-26T12:21:35;3.33;;;1.00;;
14994;SDS011;7593;49.006;8.372;2024-02-26T12:24:10;4.05;;;1.27;;
14994;SDS011;7593;49.006;8.372;2024-02-26T12:26:38;3.72;;;1.33;;
14994;SDS011;7593;49.006;8.372;2024-02-26T12:29:05;2.28;;;0.80;;
14994;SDS011;7593;49.006;8.372;2024-02-26T12:31:32;3.00;;;1.08;;
14994;SDS011;7593;49.006;8.372;2024-02-26T12:34:03;1.42;;;0.95;;
14994;SDS011;7593;49.006;8.372;2024-02-26T12:36:31;3.95;;;1.15;;
14994;SDS011;7593;49.006;8.372;2024-02-26T12:38:59;2.33;;;1.13;;
14994;SDS011;7593;49.006;8.372;2024-02-26T12:41:27;2.42;;;1.10;;
14994;SDS011;7593;49.006;8.372;2024-02-26T12:43:55;1.80;;;0.80;;
14994;SDS011;7593;49.006;8.372;2024-02-26T12:46:23;1.98;;;1.00;;
14994;SDS011;7593;49.006;8.372;2024-02-26T12:48:50;5.03;;;1.23;;
14994;SDS011;7593;49.006;8.372;2024-02-26T12:51:18;1.48;;;1.02;;
14994;SDS011;7593;49.006;8.372;2024-02-26T12:53:46;8.10;;;1.40;;
14994;SDS011;7593;49.006;8.372;2024-02-26T12:56:15;3.03;;;1.08;;
14994;SDS011;7593;49.006;8.372;2024-02-26T12:58:43;3.60;;;1.30;;
14994;SDS011;7593;49.006;8.372;2024-02-26T13:01:13;5.55;;;1.40;;
14994;SDS011;7593;49.006;8.372;2024-02-26T13:03:41;3.40;;;1.20;;
14994;SDS011;7593;49.006;8.372;2024-02-26T13:06:08;3.58;;;1.00;;
14994;SDS011;7593;49.006;8.372;2024-02-26T13:08:37;2.53;;;1.15;;
14994;SDS011;7593;49.006;8.372;2024-02-26T13:11:04;7.20;;;1.33;;
14994;SDS011;7593;49.006;8.372;2024-02-26T13:13:31;4.80;;;1.45;;
14994;SDS011;7593;49.006;8.372;2024-02-26T13:16:01;3.95;;;1.10;;
14994;SDS011;7593;49.006;8.372;2024-02-26T13:18:29;1.50;;;0.80;;
14994;SDS011;7593;49.006;8.372;2024-02-26T13:21:06;2.20;;;0.85;;
14994;SDS011;7593;49.006;8.372;2024-02-26T13:23:34;3.28;;;1.10;;
14994;SDS011;7593;49.006;8.372;2024-02-26T13:26:03;4.85;;;1.13;;
14994;SDS011;7593;49.006;8.372;2024-02-26T13:28:29;0.90;;;0.80;;
14994;SDS011;7593;49.006;8.372;2024-02-26T13:30:57;1.35;;;0.85;;
14994;SDS011;7593;49.006;8.372;2024-02-26T13:33:26;2.65;;;0.90;;
14994;SDS011;7593;49.006;8.372;2024-02-26T13:35:54;2.65;;;1.00;;
14994;SDS011;7593;49.006;8.372;2024-02-26T13:38:21;3.50;;;1.23;;
14994;SDS011;7593;49.006;8.372;2024-02-26T13:40:49;2.40;;;1.10;;
14994;SDS011;7593;49.006;8.372;2024-02-26T13:43:17;4.03;;;1.23;;
14994;SDS011;7593;49.006;8.372;2024-02-26T13:45:44;1.50;;;0.90;;
14994;SDS011;7593;49.006;8.372;2024-02-26T13:48:12;2.70;;;1.02;;
14994;SDS011;7593;49.006;8.372;2024-02-26T13:50:39;1.63;;;0.90;;
14994;SDS011;7593;49.006;8.372;2024-02-26T13:53:08;1.85;;;0.93;;
14994;SDS011;7593;49.006;8.372;2024-02-26T13:55:35;4.70;;;1.27;;
14994;SDS011;7593;49.006;8.372;2024-02-26T13:58:02;1.30;;;1.20;;
14994;SDS011;7593;49.006;8.372;2024-02-26T14:00:30;1.63;;;0.70;;
14994;SDS011;7593;49.006;8.372;2024-02-26T14:02:58;1.73;;;0.80;;
14994;SDS011;7593;49.006;8.372;2024-02-26T14:05:25;5.63;;;0.90;;
14994;SDS011;7593;49.006;8.372;2024-02-26T14:07:52;0.55;;;0.50;;
14994;SDS011;7593;49.006;8.372;2024-02-26T14:10:19;3.13;;;1.05;;
14994;SDS011;7593;49.006;8.372;2024-02-26T14:12:46;1.08;;;0.70;;
14994;SDS011;7593;49.006;8.372;2024-02-26T14:15:13;1.67;;;0.73;;
14994;SDS011;7593;49.006;8.372;2024-02-26T14:17:41;1.40;;;0.85;;
14994;SDS011;7593;49.006;8.372;2024-02-26T14:20:08;2.47;;;0.90;;
14994;SDS011;7593;49.006;8.372;2024-02-26T14:22:36;2.58;;;0.85;;
14994;SDS011;7593;49.006;8.372;2024-02-26T14:25:03;1.17;;;0.90;;
14994;SDS011;7593;49.006;8.372;2024-02-26T14:27:30;3.08;;;0.80;;
14994;SDS011;7593;49.006;8.372;2024-02-26T14:29:57;2.53;;;1.20;;
14994;SDS011;7593;49.006;8.372;2024-02-26T14:32:23;1.63;;;0.90;;
14994;SDS011;7593;49.006;8.372;2024-02-26T14:34:52;1.35;;;0.80;;
14994;SDS011;7593;49.006;8.372;2024-02-26T14:37:18;1.13;;;0.90;;
14994;SDS011;7593;49.006;8.372;2024-02-26T14:39:45;1.92;;;1.05;;
14994;SDS011;7593;49.006;8.372;2024-02-26T14:42:13;1.05;;;0.77;;
14994;SDS011;7593;49.006;8.372;2024-02-26T14:44:42;1.63;;;1.15;;
14994;SDS011;7593;49.006;8.372;2024-02-26T14:47:09;1.00;;;0.90;;
14994;SDS011;7593;49.006;8.372;2024-02-26T14:49:36;2.17;;;1.20;;
14994;SDS011;7593;49.006;8.372;2024-02-26T14:52:04;1.70;;;0.80;;
14994;SDS011;7593;49.006;8.372;2024-02-26T14:54:31;5.78;;;1.20;;
14994;SDS011;7593;49.006;8.372;2024-02-26T14:57:02;0.90;;;0.75;;
14994;SDS011;7593;49.006;8.372;2024-02-26T14:59:29;4.10;;;1.10;;
14994;SDS011;7593;49.006;8.372;2024-02-26T15:01:57;2.72;;;1.13;;
14994;SDS011;7593;49.006;8.372;2024-02-26T15:04:25;1.83;;;0.73;;
14994;SDS011;7593;49.006;8.372;2024-02-26T15:06:51;0.88;;;0.80;;
14994;SDS011;7593;49.006;8.372;2024-02-26T15:09:20;3.25;;;1.30;;